createdAt,value
2022-11-15T00:05:28.785Z,188.61
2022-11-15T00:11:00.398Z,188.39
2022-11-15T00:16:32.306Z,187.43
2022-11-15T00:22:03.936Z,188.29
2022-11-15T00:27:35.757Z,187.64
2022-11-15T00:33:07.463Z,190.03
2022-11-15T00:38:39.312Z,190.80
2022-11-15T00:44:10.975Z,190.58
2022-11-15T00:49:42.840Z,191.47
2022-11-15T00:55:14.596Z,193.50
2022-11-15T01:00:46.344Z,193.85
2022-11-15T01:06:18.172Z,193.39
2022-11-15T01:11:50.222Z,194.08
2022-11-15T01:17:21.667Z,194.54
2022-11-15T01:22:52.901Z,193.50
2022-11-15T01:28:24.346Z,195.70
2022-11-15T01:33:56.058Z,195.58
2022-11-15T01:39:27.773Z,198.30
2022-11-15T01:44:59.092Z,199.63
2022-11-15T01:52:43.025Z,202.21
2022-11-15T01:58:14.353Z,206.54
2022-11-15T02:03:46.092Z,204.86
2022-11-15T02:09:17.953Z,206.28
2022-11-15T02:14:49.926Z,205.24
2022-11-15T02:20:21.606Z,208.11
2022-11-15T02:25:53.426Z,208.51
2022-11-15T02:31:25.246Z,210.65
2022-11-15T02:36:56.948Z,211.19
2022-11-15T02:42:29.114Z,213.11
2022-11-15T02:48:00.964Z,215.63
2022-11-15T02:53:33.037Z,216.34
2022-11-15T02:59:04.335Z,216.34
2022-11-15T03:04:36.445Z,214.22
2022-11-15T03:10:08.544Z,215.07
2022-11-15T03:15:40.373Z,214.08
2022-11-15T03:21:12.118Z,210.38
2022-11-15T03:26:44.032Z,208.11
2022-11-15T03:32:15.983Z,207.58
2022-11-15T03:37:47.644Z,207.32
2022-11-15T03:43:19.531Z,210.24
2022-11-15T03:48:51.264Z,209.04
2022-11-15T03:54:22.991Z,209.84
2022-11-15T03:59:54.725Z,212.70
2022-11-15T04:05:26.466Z,211.19
2022-11-15T04:10:58.972Z,212.15
2022-11-15T04:16:30.585Z,213.25
2022-11-15T04:22:02.306Z,214.36
2022-11-15T04:27:34.219Z,216.20
2022-11-15T04:33:05.872Z,218.79
2022-11-15T04:38:37.786Z,217.06
2022-11-15T04:44:09.366Z,218.94
2022-11-15T04:49:41.111Z,216.63
2022-11-15T04:55:12.837Z,217.63
2022-11-15T04:57:37.008Z,218.65
2022-11-15T05:03:08.947Z,222.05
2022-11-15T05:08:41.010Z,223.11
2022-11-15T05:14:13.064Z,222.05
2022-11-15T05:19:44.862Z,223.72
2022-11-15T05:25:16.797Z,221.60
2022-11-15T05:30:48.765Z,221.45
2022-11-15T05:36:20.671Z,220.56
2022-11-15T05:41:52.505Z,221.15
2022-11-15T05:47:24.142Z,220.56
2022-11-15T05:52:59.666Z,218.79
2022-11-15T05:58:28.296Z,219.09
2022-11-15T06:04:00.125Z,216.77
2022-11-15T06:09:31.817Z,216.63
2022-11-15T06:15:03.603Z,216.91
2022-11-15T06:20:35.558Z,219.09
2022-11-15T06:26:07.349Z,218.50
2022-11-15T06:31:38.931Z,217.92
2022-11-15T06:37:10.446Z,216.77
2022-11-15T06:42:42.214Z,215.21
2022-11-15T06:48:13.872Z,212.70
2022-11-15T06:53:45.581Z,207.58
2022-11-15T06:59:17.420Z,206.28
2022-11-15T07:04:49.831Z,204.48
2022-11-15T07:10:21.932Z,209.17
2022-11-15T07:15:53.654Z,215.63
2022-11-15T07:21:27.729Z,223.11
2022-11-15T07:26:57.209Z,224.95
2022-11-15T07:32:29.568Z,223.26
2022-11-15T07:38:01.672Z,224.02
2022-11-15T07:45:30.648Z,224.95
2022-11-15T07:51:02.587Z,222.50
2022-11-15T07:56:34.313Z,216.77
2022-11-15T08:02:06.105Z,216.34
2022-11-15T08:13:07.575Z,210.65
2022-11-15T08:18:39.233Z,215.07
2022-11-15T08:24:11.229Z,218.65
2022-11-15T08:29:43.413Z,222.65
2022-11-15T08:35:15.368Z,221.45
2022-11-15T08:40:47.643Z,211.46
2022-11-15T08:46:19.818Z,206.54
2022-11-15T08:51:52.085Z,207.19
2022-11-15T08:57:24.480Z,200.73
2022-11-15T09:03:02.354Z,190.36
2022-11-15T09:08:47.357Z,186.04
2022-11-15T09:14:06.244Z,185.01
2022-11-15T09:19:38.378Z,183.18
2022-11-15T09:25:16.277Z,180.40
2022-11-15T09:30:48.626Z,178.86
2022-11-15T09:36:20.850Z,178.29
2022-11-15T09:41:59.064Z,175.47
2022-11-15T09:47:31.237Z,174.01
2022-11-15T09:53:08.961Z,174.01
2022-11-15T09:58:40.966Z,173.83
2022-11-15T10:04:19.187Z,169.24
2022-11-15T10:09:57.014Z,166.21
2022-11-15T10:15:29.298Z,166.04
2022-11-15T10:21:07.638Z,160.15
2022-11-15T10:26:45.711Z,161.86
2022-11-15T10:32:18.099Z,161.08
2022-11-15T10:37:56.301Z,160.15
2022-11-15T10:43:34.436Z,156.99
2022-11-15T10:49:06.746Z,157.28
2022-11-15T10:54:38.663Z,155.81
2022-11-15T11:00:16.824Z,153.66
2022-11-15T11:05:49.025Z,152.40
2022-11-15T11:11:20.884Z,151.15
2022-11-15T11:16:59.085Z,147.68
2022-11-15T11:22:37.291Z,145.87
2022-11-15T11:28:10.584Z,144.86
2022-11-15T11:33:48.920Z,140.94
2022-11-15T11:39:21.485Z,140.59
2022-11-15T11:44:53.382Z,140.70
2022-11-15T11:50:31.474Z,138.37
2022-11-15T11:56:03.350Z,136.78
2022-11-15T12:01:35.643Z,136.67
2022-11-15T12:07:07.943Z,134.68
2022-11-15T12:12:46.093Z,134.68
2022-11-15T12:18:18.251Z,132.44
2022-11-15T12:23:56.354Z,132.13
2022-11-15T12:29:34.509Z,131.81
2022-11-15T12:35:12.316Z,130.07
2022-11-15T12:40:44.649Z,130.57
2022-11-15T12:46:16.635Z,129.16
2022-11-15T12:51:48.952Z,128.76
2022-11-15T12:57:21.199Z,127.68
2022-11-15T13:02:59.545Z,128.17
2022-11-15T13:08:32.018Z,127.48
2022-11-15T13:14:04.064Z,126.71
2022-11-15T13:19:42.234Z,126.13
2022-11-15T13:25:19.995Z,125.66
2022-11-15T13:30:52.164Z,126.61
2022-11-15T13:42:10.204Z,125.19
2022-11-15T13:47:48.329Z,124.91
2022-11-15T13:53:20.265Z,124.53
2022-11-15T13:58:52.472Z,124.07
2022-11-15T14:04:24.849Z,122.97
2022-11-15T14:09:56.885Z,123.15
2022-11-15T14:15:28.758Z,121.28
2022-11-15T14:21:06.576Z,121.99
2022-11-15T14:26:44.225Z,121.72
2022-11-15T14:32:22.117Z,121.10
2022-11-15T14:43:38.275Z,122.52
2022-11-15T14:49:16.336Z,122.34
2022-11-15T14:54:48.589Z,122.88
2022-11-15T15:00:20.874Z,123.52
2022-11-15T15:05:53.210Z,123.34
2022-11-15T15:11:25.693Z,123.89
2022-11-15T15:16:57.804Z,124.16
2022-11-15T15:22:30.567Z,125.19
2022-11-15T15:28:02.464Z,126.90
2022-11-15T15:33:34.508Z,126.90
2022-11-15T15:39:06.678Z,129.06
2022-11-15T15:44:39.094Z,129.86
2022-11-15T15:50:11.489Z,129.06
2022-11-15T15:55:43.349Z,129.96
2022-11-15T16:01:15.300Z,132.34
2022-11-15T16:06:47.265Z,133.82
2022-11-15T16:12:19.211Z,134.14
2022-11-15T16:17:51.555Z,137.12
2022-11-15T16:23:23.620Z,138.03
2022-11-15T16:28:55.599Z,137.69
2022-11-15T16:34:31.169Z,140.23
2022-11-15T16:40:01.326Z,142.02
2022-11-15T16:45:32.288Z,143.36
2022-11-15T16:51:04.555Z,142.75
2022-11-15T16:56:36.605Z,143.49
2022-11-15T17:02:08.388Z,145.87
2022-11-15T17:07:40.032Z,147.29
2022-11-15T17:13:12.092Z,146.90
2022-11-15T17:18:44.388Z,146.51
2022-11-15T17:24:16.550Z,148.73
2022-11-15T17:29:48.723Z,149.00
2022-11-15T17:35:21.284Z,149.13
2022-11-15T17:40:53.155Z,151.15
2022-11-15T17:46:25.167Z,151.29
2022-11-15T17:51:57.723Z,151.29
2022-11-15T17:57:29.690Z,150.88
2022-11-15T18:03:01.764Z,154.37
2022-11-15T18:08:33.850Z,154.80
2022-11-15T18:14:05.764Z,155.38
2022-11-15T18:19:38.010Z,156.99
2022-11-15T18:25:10.246Z,152.82
2022-11-15T18:30:42.515Z,155.38
2022-11-15T18:36:14.774Z,151.02
2022-11-15T18:41:47.061Z,151.84
2022-11-15T18:47:19.375Z,149.53
2022-11-15T18:49:43.099Z,152.96
2022-11-15T18:55:15.197Z,159.54
2022-11-15T19:00:47.053Z,156.10
2022-11-15T19:06:18.857Z,157.43
2022-11-15T19:11:50.784Z,156.69
2022-11-15T19:17:22.231Z,156.40
2022-11-15T19:22:53.638Z,157.73
2022-11-15T19:28:25.642Z,156.69
2022-11-15T19:33:57.439Z,156.10
2022-11-15T19:39:29.141Z,155.09
2022-11-15T19:45:00.928Z,151.43
2022-11-15T19:50:32.669Z,150.61
2022-11-15T19:56:04.684Z,146.77
2022-11-15T20:01:36.702Z,149.80
2022-11-15T20:07:08.531Z,152.82
2022-11-15T20:12:45.767Z,153.66
2022-11-15T20:18:17.721Z,155.23
2022-11-15T20:23:49.429Z,159.99
2022-11-15T20:29:27.177Z,155.96
2022-11-15T20:34:59.088Z,156.69
2022-11-15T20:40:30.921Z,157.73
2022-11-15T20:46:02.584Z,155.96
2022-11-15T20:51:34.386Z,156.69
2022-11-15T20:57:06.345Z,155.67
2022-11-15T21:02:37.819Z,153.38
2022-11-15T21:08:09.449Z,151.29
2022-11-15T21:13:40.853Z,149.26
2022-11-15T21:19:12.547Z,149.80
2022-11-15T21:24:44.307Z,149.00
2022-11-15T21:30:16.256Z,145.87
2022-11-15T21:35:53.706Z,148.73
2022-11-15T21:46:54.738Z,152.26
2022-11-15T21:52:26.316Z,150.74
2022-11-15T21:57:58.030Z,149.66
2022-11-15T22:03:29.866Z,149.26
2022-11-15T22:14:31.046Z,151.43
2022-11-15T22:20:22.764Z,153.80
2022-11-15T22:25:34.589Z,161.54
2022-11-15T22:37:13.294Z,156.54
2022-11-15T22:42:18.249Z,157.58
2022-11-15T22:47:46.945Z,159.38
2022-11-15T22:53:18.781Z,157.58
2022-11-15T22:58:50.496Z,155.38
2022-11-15T23:04:22.405Z,155.09
2022-11-15T23:09:54.116Z,156.40
2022-11-15T23:15:29.568Z,157.73
2022-11-15T23:20:57.719Z,158.03
2022-11-15T23:26:29.321Z,162.01
2022-11-15T23:32:02.291Z,164.73
2022-11-15T23:37:32.525Z,165.88
2022-11-15T23:43:04.363Z,168.90
2022-11-15T23:48:36.195Z,172.93
2022-11-15T23:54:07.408Z,173.11
2022-11-15T23:59:39.082Z,171.68
